Time;durP1;ratioP1;P1;durP2;ratioP2;P2;SDS_P1;SDS_P2;PMS_P1;PMS_P2;Temp;Humidity;BMP_temperature;BMP_pressure;BME280_temperature;BME280_humidity;BME280_pressure;Samples;Min_cycle;Max_cycle;Signal;HPM_P1;HPM_P2
2023/08/06 00:01:21;;;;;;;;;0.00;0.00;;;;;;;;4846539;28;13477498;-59
2023/08/06 00:03:46;;;;;;;;;1.00;1.00;;;;;;;;4994137;28;51099;-59
2023/08/06 00:06:11;;;;;;;;;0.00;0.00;;;;;;;;4993689;28;51165;-59
2023/08/06 00:08:36;;;;;;;;;1.33;1.00;;;;;;;;5001288;28;51067;-59
2023/08/06 00:11:01;;;;;;;;;0.00;0.00;;;;;;;;5013460;28;51048;-59
2023/08/06 00:13:27;;;;;;;;;1.00;0.00;;;;;;;;5012690;28;51182;-59
2023/08/06 00:15:52;;;;;;;;;0.00;0.00;;;;;;;;5013434;28;51377;-58
2023/08/06 00:18:17;;;;;;;;;0.00;0.00;;;;;;;;5013379;28;50991;-57
2023/08/06 00:20:42;;;;;;;;;0.00;0.00;;;;;;;;5008675;28;51197;-60
2023/08/06 00:23:08;;;;;;;;;0.00;0.00;;;;;;;;5013409;28;51079;-58
2023/08/06 00:25:33;;;;;;;;;0.00;0.00;;;;;;;;5013105;28;51341;-58
2023/08/06 00:27:58;;;;;;;;;1.00;0.00;;;;;;;;5013503;28;50962;-57
2023/08/06 00:30:24;;;;;;;;;0.00;0.00;;;;;;;;5013624;28;51113;-57
2023/08/06 00:32:49;;;;;;;;;0.00;0.00;;;;;;;;5013412;28;51135;-57
2023/08/06 00:35:14;;;;;;;;;0.00;0.00;;;;;;;;5013067;28;51201;-57
2023/08/06 00:37:39;;;;;;;;;0.00;0.00;;;;;;;;5011927;28;51111;-57
2023/08/06 00:40:06;;;;;;;;;0.00;0.00;;;;;;;;5013167;28;51022;-57
2023/08/06 00:42:31;;;;;;;;;1.00;0.33;;;;;;;;5013331;28;51181;-58
2023/08/06 00:44:56;;;;;;;;;1.00;1.00;;;;;;;;5011517;28;51115;-59
2023/08/06 00:47:21;;;;;;;;;0.00;0.00;;;;;;;;5013187;28;51129;-58
2023/08/06 00:49:46;;;;;;;;;1.33;1.33;;;;;;;;5013404;28;51169;-58
2023/08/06 00:52:13;;;;;;;;;0.00;0.00;;;;;;;;5013461;28;51277;-58
2023/08/06 00:54:39;;;;;;;;;0.00;0.00;;;;;;;;5012446;28;52000;-57
2023/08/06 00:57:04;;;;;;;;;1.00;0.00;;;;;;;;5012709;28;50865;-58
2023/08/06 00:59:30;;;;;;;;;0.33;0.00;;;;;;;;5012965;28;51029;-58
2023/08/06 01:01:56;;;;;;;;;1.00;1.00;;;;;;;;5011883;28;51090;-57
2023/08/06 01:04:22;;;;;;;;;1.00;1.00;;;;;;;;5012650;28;50968;-58
2023/08/06 01:06:48;;;;;;;;;0.67;0.67;;;;;;;;5012654;28;50881;-58
2023/08/06 01:09:13;;;;;;;;;2.00;1.00;;;;;;;;5012598;28;51103;-58
2023/08/06 01:11:54;;;;;;;;;1.33;0.00;;;;;;;;5012608;28;51342;-57
2023/08/06 01:14:28;;;;;;;;;2.00;2.00;;;;;;;;5012426;28;51169;-57
2023/08/06 01:16:53;;;;;;;;;0.00;0.00;;;;;;;;5012719;28;50881;-59
2023/08/06 01:19:19;;;;;;;;;2.33;2.00;;;;;;;;5012565;28;50952;-57
2023/08/06 01:21:44;;;;;;;;;1.00;0.33;;;;;;;;5013081;28;50976;-59
2023/08/06 01:24:10;;;;;;;;;0.00;0.00;;;;;;;;5012284;28;52010;-59
2023/08/06 01:26:53;;;;;;;;;4.33;2.33;;;;;;;;5012428;28;51031;-59
2023/08/06 01:29:23;;;;;;;;;1.67;1.00;;;;;;;;5012291;28;51255;-59
2023/08/06 01:31:50;;;;;;;;;2.00;1.00;;;;;;;;5014505;28;50888;-59
2023/08/06 01:34:23;;;;;;;;;1.00;1.00;;;;;;;;5014201;28;52721;-60
2023/08/06 01:36:48;;;;;;;;;1.00;1.00;;;;;;;;5015701;28;51010;-59
2023/08/06 01:39:13;;;;;;;;;2.33;1.00;;;;;;;;5015582;28;50975;-59
2023/08/06 01:41:39;;;;;;;;;2.00;1.33;;;;;;;;5015892;28;51297;-59
2023/08/06 01:44:04;;;;;;;;;1.67;1.67;;;;;;;;5015710;28;51856;-59
2023/08/06 01:46:29;;;;;;;;;3.33;3.00;;;;;;;;5015940;28;51094;-59
2023/08/06 01:48:54;;;;;;;;;4.00;4.00;;;;;;;;5015835;28;50968;-59
2023/08/06 01:51:19;;;;;;;;;4.00;4.00;;;;;;;;5016087;28;50981;-59
2023/08/06 01:53:45;;;;;;;;;5.00;4.33;;;;;;;;5015526;28;50994;-59
2023/08/06 01:56:10;;;;;;;;;3.00;3.00;;;;;;;;5015320;28;50933;-58
2023/08/06 01:58:35;;;;;;;;;4.00;4.00;;;;;;;;5015786;28;50932;-59
2023/08/06 02:01:01;;;;;;;;;6.00;3.33;;;;;;;;5015623;28;51130;-59
2023/08/06 02:03:26;;;;;;;;;7.00;6.00;;;;;;;;5015284;28;51996;-59
2023/08/06 02:05:51;;;;;;;;;4.00;4.00;;;;;;;;5015464;28;50953;-59
2023/08/06 02:08:16;;;;;;;;;6.00;4.67;;;;;;;;5015268;28;50957;-58
2023/08/06 02:10:42;;;;;;;;;3.67;3.00;;;;;;;;5015605;28;51292;-58
2023/08/06 02:13:07;;;;;;;;;2.00;1.00;;;;;;;;5015174;28;52020;-58
2023/08/06 02:15:32;;;;;;;;;2.00;2.00;;;;;;;;5005594;28;50951;-58
2023/08/06 02:17:57;;;;;;;;;2.00;2.00;;;;;;;;4995683;28;51042;-58
2023/08/06 02:20:22;;;;;;;;;3.00;3.00;;;;;;;;4995950;28;50858;-59
2023/08/06 02:22:47;;;;;;;;;1.33;1.33;;;;;;;;5010011;28;51056;-58
2023/08/06 02:25:13;;;;;;;;;2.33;2.00;;;;;;;;4995592;28;51106;-58
2023/08/06 02:27:38;;;;;;;;;2.00;0.00;;;;;;;;4865573;28;3786923;-58
2023/08/06 02:30:04;;;;;;;;;2.67;2.33;;;;;;;;5005647;28;50896;-58
2023/08/06 02:32:31;;;;;;;;;3.00;2.33;;;;;;;;5014997;28;51828;-59
2023/08/06 02:34:56;;;;;;;;;2.00;2.00;;;;;;;;5014986;28;50984;-58
2023/08/06 02:37:21;;;;;;;;;3.67;3.67;;;;;;;;5015095;28;51089;-58
2023/08/06 02:39:47;;;;;;;;;3.67;3.67;;;;;;;;5015157;28;51364;-58
2023/08/06 02:42:12;;;;;;;;;2.00;1.00;;;;;;;;5014599;28;51959;-58
2023/08/06 02:44:37;;;;;;;;;3.00;3.00;;;;;;;;5015409;28;51229;-59
2023/08/06 02:47:02;;;;;;;;;3.00;3.00;;;;;;;;5013768;28;51255;-58
2023/08/06 02:49:27;;;;;;;;;4.00;3.00;;;;;;;;5013901;28;51046;-58
2023/08/06 02:51:53;;;;;;;;;3.33;3.33;;;;;;;;5014692;28;51890;-58
2023/08/06 02:54:18;;;;;;;;;2.00;2.00;;;;;;;;5014469;28;50987;-59
2023/08/06 02:56:44;;;;;;;;;3.00;2.00;;;;;;;;5014918;28;51295;-58
2023/08/06 02:59:10;;;;;;;;;4.00;4.00;;;;;;;;5014996;28;50936;-58
2023/08/06 03:01:36;;;;;;;;;3.00;2.67;;;;;;;;5014310;28;52420;-58
2023/08/06 03:04:01;;;;;;;;;3.00;2.33;;;;;;;;5014688;28;50994;-58
2023/08/06 03:06:26;;;;;;;;;10.33;10.33;;;;;;;;5014601;28;51281;-58
2023/08/06 03:08:51;;;;;;;;;3.00;3.00;;;;;;;;5014751;28;51054;-58
2023/08/06 03:11:16;;;;;;;;;3.00;3.00;;;;;;;;5014025;28;52212;-58
2023/08/06 03:13:41;;;;;;;;;4.25;3.25;;;;;;;;5014874;28;51032;-58
2023/08/06 03:16:07;;;;;;;;;2.67;2.67;;;;;;;;5012725;28;51354;-58
2023/08/06 03:18:32;;;;;;;;;4.00;4.00;;;;;;;;4995169;28;51102;-58
2023/08/06 03:20:57;;;;;;;;;3.00;3.00;;;;;;;;4994380;28;51109;-58
2023/08/06 03:23:22;;;;;;;;;4.33;3.67;;;;;;;;4994596;28;51093;-58
2023/08/06 03:25:48;;;;;;;;;2.00;2.00;;;;;;;;4994264;28;50966;-59
2023/08/06 03:28:13;;;;;;;;;3.00;2.00;;;;;;;;4994919;28;51174;-59
2023/08/06 03:30:38;;;;;;;;;3.00;3.00;;;;;;;;5012488;28;51935;-59
2023/08/06 03:33:03;;;;;;;;;3.67;2.00;;;;;;;;5014266;28;50771;-59
2023/08/06 03:35:28;;;;;;;;;3.00;3.00;;;;;;;;5013999;28;51333;-59
2023/08/06 03:37:54;;;;;;;;;4.00;3.67;;;;;;;;5014381;28;51025;-59
2023/08/06 03:40:19;;;;;;;;;4.00;3.67;;;;;;;;5013247;28;52269;-59
2023/08/06 03:42:44;;;;;;;;;3.00;3.00;;;;;;;;5014292;28;50965;-58
2023/08/06 03:45:09;;;;;;;;;4.00;4.00;;;;;;;;5013942;28;51173;-59
2023/08/06 03:47:34;;;;;;;;;4.33;3.33;;;;;;;;5014340;28;51276;-58
2023/08/06 03:50:00;;;;;;;;;3.00;3.00;;;;;;;;5013865;28;51653;-58
2023/08/06 03:52:25;;;;;;;;;4.00;3.00;;;;;;;;5014162;28;51198;-58
2023/08/06 03:54:50;;;;;;;;;3.00;3.00;;;;;;;;5012801;28;51074;-58
2023/08/06 03:57:15;;;;;;;;;3.00;3.00;;;;;;;;5007153;28;51321;-58
2023/08/06 03:59:41;;;;;;;;;4.00;4.00;;;;;;;;4993836;28;51692;-58
2023/08/06 04:02:06;;;;;;;;;2.00;2.00;;;;;;;;4994214;28;51095;-58
2023/08/06 04:04:31;;;;;;;;;4.00;4.00;;;;;;;;4993900;28;51310;-58
2023/08/06 04:06:56;;;;;;;;;4.67;4.33;;;;;;;;4994154;28;51082;-58
2023/08/06 04:09:21;;;;;;;;;4.00;4.00;;;;;;;;5006638;28;51907;-57
2023/08/06 04:11:46;;;;;;;;;3.00;3.00;;;;;;;;5013402;28;50904;-57
2023/08/06 04:14:12;;;;;;;;;5.00;4.00;;;;;;;;5013633;28;50911;-58
2023/08/06 04:16:37;;;;;;;;;4.00;4.00;;;;;;;;5013979;28;51215;-58
2023/08/06 04:19:02;;;;;;;;;3.33;3.33;;;;;;;;5000501;28;52913;-58
2023/08/06 04:21:27;;;;;;;;;4.67;4.33;;;;;;;;4993554;28;51095;-57
2023/08/06 04:23:52;;;;;;;;;5.00;4.00;;;;;;;;5010444;28;51267;-58
2023/08/06 04:26:18;;;;;;;;;2.33;2.33;;;;;;;;5013157;28;51152;-59
2023/08/06 04:28:43;;;;;;;;;3.00;3.00;;;;;;;;5013096;28;52031;-59
2023/08/06 04:31:08;;;;;;;;;4.00;4.00;;;;;;;;5013070;28;50948;-59
2023/08/06 04:33:34;;;;;;;;;3.00;3.00;;;;;;;;5001329;28;51144;-58
2023/08/06 04:35:59;;;;;;;;;3.00;3.00;;;;;;;;4993651;28;51345;-58
2023/08/06 04:38:27;;;;;;;;;4.00;3.67;;;;;;;;4993344;28;51051;-58
2023/08/06 04:40:52;;;;;;;;;3.67;3.00;;;;;;;;4992837;28;51103;-58
2023/08/06 04:43:18;;;;;;;;;3.00;3.00;;;;;;;;4993347;28;50919;-58
2023/08/06 04:45:47;;;;;;;;;1.50;1.00;;;;;;;;4993267;28;51212;-58
2023/08/06 04:48:12;;;;;;;;;5.00;4.00;;;;;;;;4992893;28;51759;-58
2023/08/06 04:50:37;;;;;;;;;4.00;3.00;;;;;;;;4992903;28;51067;-59
2023/08/06 04:53:02;;;;;;;;;3.33;3.33;;;;;;;;4993192;28;51269;-61
2023/08/06 04:55:27;;;;;;;;;4.67;3.67;;;;;;;;4993014;28;51039;-59
2023/08/06 04:57:52;;;;;;;;;3.00;3.00;;;;;;;;4992901;28;51112;-58
2023/08/06 05:00:18;;;;;;;;;4.33;3.33;;;;;;;;4992894;28;50992;-58
2023/08/06 05:02:43;;;;;;;;;4.00;3.00;;;;;;;;4991985;28;51238;-58
2023/08/06 05:05:08;;;;;;;;;3.00;3.00;;;;;;;;4993090;28;50873;-58
2023/08/06 05:07:33;;;;;;;;;3.33;3.00;;;;;;;;5004272;28;53200;-59
2023/08/06 05:09:58;;;;;;;;;3.67;3.00;;;;;;;;5012358;28;51068;-58
2023/08/06 05:12:24;;;;;;;;;5.00;4.67;;;;;;;;5012718;28;51131;-58
2023/08/06 05:14:49;;;;;;;;;3.67;3.67;;;;;;;;5012767;28;51122;-58
2023/08/06 05:17:14;;;;;;;;;1.00;1.00;;;;;;;;5012578;28;51912;-58
2023/08/06 05:19:39;;;;;;;;;4.00;4.00;;;;;;;;5007579;28;51038;-59
2023/08/06 05:22:04;;;;;;;;;3.00;2.67;;;;;;;;4992931;28;50975;-58
2023/08/06 05:24:30;;;;;;;;;3.33;3.33;;;;;;;;4992707;28;51011;-58
2023/08/06 05:26:55;;;;;;;;;3.67;3.33;;;;;;;;5003574;28;51096;-58
2023/08/06 05:29:20;;;;;;;;;2.33;2.00;;;;;;;;5012355;28;51012;-59
2023/08/06 05:31:45;;;;;;;;;2.00;2.00;;;;;;;;5012510;28;51431;-58
2023/08/06 05:34:10;;;;;;;;;4.00;4.00;;;;;;;;5012381;28;51311;-58
2023/08/06 05:36:36;;;;;;;;;3.00;2.33;;;;;;;;5012236;28;51828;-58
2023/08/06 05:39:01;;;;;;;;;2.33;2.33;;;;;;;;5009130;28;51205;-58
2023/08/06 05:41:26;;;;;;;;;2.00;2.00;;;;;;;;4992687;28;51182;-58
2023/08/06 05:43:51;;;;;;;;;3.00;3.00;;;;;;;;4992707;28;51257;-58
2023/08/06 05:46:16;;;;;;;;;4.33;3.00;;;;;;;;4992581;28;51925;-58
2023/08/06 05:48:42;;;;;;;;;4.00;3.00;;;;;;;;4991368;28;51015;-58
2023/08/06 05:51:07;;;;;;;;;2.00;2.00;;;;;;;;4992854;28;51111;-58
2023/08/06 05:53:33;;;;;;;;;3.00;3.00;;;;;;;;4991053;28;51353;-57
2023/08/06 05:55:58;;;;;;;;;3.00;3.00;;;;;;;;4991653;28;51224;-58
2023/08/06 05:58:26;;;;;;;;;4.00;4.00;;;;;;;;4992105;28;50920;-58
2023/08/06 06:00:51;;;;;;;;;1.67;1.67;;;;;;;;4996697;28;51073;-58
2023/08/06 06:03:16;;;;;;;;;2.67;2.67;;;;;;;;5010051;28;51003;-58
2023/08/06 06:05:41;;;;;;;;;3.00;2.67;;;;;;;;5001509;28;50926;-59
2023/08/06 06:08:07;;;;;;;;;3.33;2.67;;;;;;;;5007505;28;51099;-58
2023/08/06 06:10:32;;;;;;;;;4.00;4.00;;;;;;;;5004766;28;51141;-58
2023/08/06 06:12:57;;;;;;;;;2.00;2.00;;;;;;;;5012204;28;51097;-58
2023/08/06 06:15:22;;;;;;;;;3.00;2.00;;;;;;;;5012040;28;51797;-58
2023/08/06 06:17:47;;;;;;;;;3.00;3.00;;;;;;;;5012739;28;51305;-58
2023/08/06 06:20:13;;;;;;;;;1.00;1.00;;;;;;;;5015328;28;50992;-58
2023/08/06 06:22:38;;;;;;;;;0.67;0.00;;;;;;;;5015353;28;50987;-57
2023/08/06 06:25:03;;;;;;;;;3.00;3.00;;;;;;;;5014795;28;51174;-58
2023/08/06 06:27:29;;;;;;;;;2.67;2.67;;;;;;;;5013986;28;51124;-57
2023/08/06 06:29:54;;;;;;;;;3.00;3.00;;;;;;;;5013886;28;51095;-58
2023/08/06 06:32:19;;;;;;;;;2.00;2.00;;;;;;;;5015024;28;51221;-57
2023/08/06 06:34:45;;;;;;;;;2.33;2.00;;;;;;;;5014977;28;50946;-57
2023/08/06 06:37:10;;;;;;;;;2.67;2.00;;;;;;;;5014793;28;51057;-58
2023/08/06 06:39:35;;;;;;;;;9.67;7.33;;;;;;;;5015018;28;50955;-58
2023/08/06 06:42:00;;;;;;;;;1.00;1.00;;;;;;;;5015232;28;50929;-58
2023/08/06 06:44:25;;;;;;;;;3.00;3.00;;;;;;;;5014949;28;52276;-58
2023/08/06 06:46:51;;;;;;;;;1.00;1.00;;;;;;;;5014839;28;51075;-57
2023/08/06 06:49:16;;;;;;;;;2.00;2.00;;;;;;;;5015099;28;51288;-57
2023/08/06 06:51:41;;;;;;;;;2.00;2.00;;;;;;;;5014984;28;51173;-57
2023/08/06 06:54:06;;;;;;;;;2.00;1.33;;;;;;;;5014280;28;51173;-57
2023/08/06 06:56:32;;;;;;;;;2.67;2.67;;;;;;;;5014633;28;50956;-58
2023/08/06 06:58:57;;;;;;;;;2.33;2.00;;;;;;;;5014830;28;51117;-59
2023/08/06 07:01:22;;;;;;;;;0.67;0.67;;;;;;;;5015079;28;51107;-57
2023/08/06 07:03:47;;;;;;;;;1.33;1.33;;;;;;;;5014446;28;51484;-57
2023/08/06 07:06:12;;;;;;;;;3.33;3.00;;;;;;;;5014557;28;51211;-57
2023/08/06 07:08:38;;;;;;;;;3.00;2.00;;;;;;;;5014525;28;51087;-59
2023/08/06 07:11:04;;;;;;;;;3.00;2.00;;;;;;;;4180439;28;23726846;-59
2023/08/06 07:13:29;;;;;;;;;3.00;2.00;;;;;;;;4994730;28;50989;-58
2023/08/06 07:15:55;;;;;;;;;1.00;1.00;;;;;;;;4994442;28;51052;-57
2023/08/06 07:18:20;;;;;;;;;2.00;1.00;;;;;;;;4994844;28;51231;-58
2023/08/06 07:20:49;;;;;;;;;2.33;2.00;;;;;;;;4994178;28;51049;-59
2023/08/06 07:23:14;;;;;;;;;0.67;0.67;;;;;;;;4998592;28;51216;-58
2023/08/06 07:25:39;;;;;;;;;1.00;1.00;;;;;;;;5013913;28;51107;-59
2023/08/06 07:28:04;;;;;;;;;2.00;2.00;;;;;;;;5013636;28;50838;-59
2023/08/06 07:30:30;;;;;;;;;2.00;2.00;;;;;;;;5013355;28;51871;-58
2023/08/06 07:32:55;;;;;;;;;1.00;1.00;;;;;;;;5014106;28;51862;-59
2023/08/06 07:35:21;;;;;;;;;2.00;2.00;;;;;;;;5013986;28;50944;-59
2023/08/06 07:37:46;;;;;;;;;1.67;1.67;;;;;;;;5014136;28;50873;-60
2023/08/06 07:40:11;;;;;;;;;1.33;1.33;;;;;;;;5013238;28;51955;-59
2023/08/06 07:42:37;;;;;;;;;2.00;1.00;;;;;;;;5013096;28;50972;-59
2023/08/06 07:45:02;;;;;;;;;2.00;2.00;;;;;;;;2397875;28;29457263;-58
2023/08/06 07:47:27;;;;;;;;;1.00;1.00;;;;;;;;5013884;28;51037;-62
2023/08/06 07:49:53;;;;;;;;;0.00;0.00;;;;;;;;5014001;28;50956;-60
2023/08/06 07:52:18;;;;;;;;;2.00;1.33;;;;;;;;5013692;28;50978;-60
2023/08/06 07:54:43;;;;;;;;;1.00;1.00;;;;;;;;5013255;28;51826;-58
2023/08/06 07:57:08;;;;;;;;;1.67;1.67;;;;;;;;5013796;28;50977;-59
2023/08/06 07:59:33;;;;;;;;;1.00;1.00;;;;;;;;5013703;28;51308;-59
2023/08/06 08:02:00;;;;;;;;;2.00;1.00;;;;;;;;5014109;28;51111;-60
2023/08/06 08:04:25;;;;;;;;;3.00;2.67;;;;;;;;5012526;28;51174;-59
2023/08/06 08:06:50;;;;;;;;;1.33;1.33;;;;;;;;5013245;28;51007;-58
2023/08/06 08:09:15;;;;;;;;;1.00;1.00;;;;;;;;5013346;28;50961;-59
2023/08/06 08:11:41;;;;;;;;;1.67;1.67;;;;;;;;5011389;28;51266;-59
2023/08/06 08:14:07;;;;;;;;;0.67;0.67;;;;;;;;5000449;28;51107;-59
2023/08/06 08:16:32;;;;;;;;;1.00;1.00;;;;;;;;4993601;28;51036;-59
2023/08/06 08:18:57;;;;;;;;;1.00;1.00;;;;;;;;4993842;28;51196;-58
2023/08/06 08:21:24;;;;;;;;;1.00;1.00;;;;;;;;4993682;28;51265;-60
2023/08/06 08:23:49;;;;;;;;;1.00;1.00;;;;;;;;5012966;28;51917;-60
2023/08/06 08:26:14;;;;;;;;;1.33;1.33;;;;;;;;5012822;28;50841;-58
2023/08/06 08:28:39;;;;;;;;;2.00;2.00;;;;;;;;5013213;28;50920;-59
2023/08/06 08:31:07;;;;;;;;;1.33;1.33;;;;;;;;5012960;28;50912;-58
2023/08/06 08:33:33;;;;;;;;;2.33;2.00;;;;;;;;5012788;28;51919;-58
2023/08/06 08:35:58;;;;;;;;;2.67;2.67;;;;;;;;5012749;28;51121;-57
2023/08/06 08:38:23;;;;;;;;;3.00;2.00;;;;;;;;5013277;28;51041;-59
2023/08/06 08:40:51;;;;;;;;;2.67;2.00;;;;;;;;5010857;28;51082;-58
2023/08/06 08:43:18;;;;;;;;;3.00;2.00;;;;;;;;5012800;28;51053;-58
2023/08/06 08:45:45;;;;;;;;;3.00;2.00;;;;;;;;5012573;28;50960;-59
2023/08/06 08:48:13;;;;;;;;;3.00;2.00;;;;;;;;5012565;28;51008;-59
2023/08/06 08:50:39;;;;;;;;;3.00;2.67;;;;;;;;5012659;28;51224;-58
2023/08/06 08:53:05;;;;;;;;;1.00;1.00;;;;;;;;5011206;28;51803;-58
2023/08/06 08:55:30;;;;;;;;;1.00;1.00;;;;;;;;5012112;28;51082;-58
2023/08/06 08:57:55;;;;;;;;;4.00;4.00;;;;;;;;5012496;28;51172;-59
2023/08/06 09:00:21;;;;;;;;;2.33;2.00;;;;;;;;5012635;28;51255;-59
2023/08/06 09:02:47;;;;;;;;;2.67;2.67;;;;;;;;5012998;28;51190;-60
2023/08/06 09:05:12;;;;;;;;;3.00;2.33;;;;;;;;5011434;28;51056;-60
2023/08/06 09:07:46;;;;;;;;;3.00;3.00;;;;;;;;5013622;28;50952;-60
2023/08/06 09:10:13;;;;;;;;;2.00;2.00;;;;;;;;5011904;28;50908;-60
2023/08/06 09:12:39;;;;;;;;;2.00;2.00;;;;;;;;5012837;28;51855;-60
2023/08/06 09:15:05;;;;;;;;;1.33;1.33;;;;;;;;5013121;28;51014;-60
2023/08/06 09:17:30;;;;;;;;;1.33;1.33;;;;;;;;5011849;28;51065;-60
2023/08/06 09:19:55;;;;;;;;;1.33;1.33;;;;;;;;5013121;28;50919;-60
2023/08/06 09:22:21;;;;;;;;;1.33;0.67;;;;;;;;5012258;28;50949;-59
2023/08/06 09:24:46;;;;;;;;;2.67;2.00;;;;;;;;5012231;28;50964;-59
2023/08/06 09:27:13;;;;;;;;;2.67;2.67;;;;;;;;5011201;28;51025;-59
2023/08/06 09:29:42;;;;;;;;;3.00;2.00;;;;;;;;5012529;28;50929;-59
2023/08/06 09:32:08;;;;;;;;;2.33;2.33;;;;;;;;5011733;28;51104;-59
2023/08/06 09:34:33;;;;;;;;;0.33;0.33;;;;;;;;5012550;28;50973;-59
2023/08/06 09:36:58;;;;;;;;;2.00;2.00;;;;;;;;5012137;28;50889;-58
2023/08/06 09:39:27;;;;;;;;;1.00;1.00;;;;;;;;5012009;28;51409;-59
2023/08/06 09:41:55;;;;;;;;;2.00;2.00;;;;;;;;5011631;28;51226;-60
2023/08/06 09:44:22;;;;;;;;;2.33;1.33;;;;;;;;5012088;28;51018;-59
2023/08/06 09:46:48;;;;;;;;;2.00;2.00;;;;;;;;5012126;28;50980;-60
2023/08/06 09:49:13;;;;;;;;;1.67;1.67;;;;;;;;5012232;28;50879;-59
2023/08/06 09:51:39;;;;;;;;;2.00;1.67;;;;;;;;5012069;28;51087;-59
2023/08/06 09:54:05;;;;;;;;;3.00;3.00;;;;;;;;5015088;28;51097;-59
2023/08/06 09:56:37;;;;;;;;;3.00;2.00;;;;;;;;5015367;28;50981;-59
2023/08/06 09:59:04;;;;;;;;;2.00;2.00;;;;;;;;5015512;28;51050;-59
2023/08/06 10:01:31;;;;;;;;;2.00;2.00;;;;;;;;5014770;28;51037;-58
2023/08/06 10:03:57;;;;;;;;;2.33;2.33;;;;;;;;5014869;28;51019;-59
2023/08/06 10:06:23;;;;;;;;;11.33;11.00;;;;;;;;5015077;28;51117;-59
2023/08/06 10:08:49;;;;;;;;;2.00;1.33;;;;;;;;5007567;28;51282;-59
2023/08/06 10:11:14;;;;;;;;;3.00;3.00;;;;;;;;4994776;28;51216;-60
2023/08/06 10:13:40;;;;;;;;;2.33;2.33;;;;;;;;5007902;28;51123;-58
2023/08/06 10:16:05;;;;;;;;;4.00;4.00;;;;;;;;5014758;28;50975;-59
2023/08/06 10:18:31;;;;;;;;;2.33;2.33;;;;;;;;5015348;28;50996;-59
2023/08/06 10:20:56;;;;;;;;;3.00;2.33;;;;;;;;5014368;28;51798;-60
2023/08/06 10:23:32;;;;;;;;;2.00;2.00;;;;;;;;5015036;28;51065;-60
2023/08/06 10:25:59;;;;;;;;;1.33;1.33;;;;;;;;5014862;28;51172;-60
2023/08/06 10:28:34;;;;;;;;;2.33;2.00;;;;;;;;5013458;28;51348;-59
2023/08/06 10:31:04;;;;;;;;;2.00;2.00;;;;;;;;5014326;28;51884;-59
2023/08/06 10:33:46;;;;;;;;;6.33;5.67;;;;;;;;5014228;28;51026;-59
2023/08/06 10:36:12;;;;;;;;;2.33;2.00;;;;;;;;5014393;28;51012;-59
2023/08/06 10:38:44;;;;;;;;;3.00;3.00;;;;;;;;5014469;28;50879;-59
2023/08/06 10:41:14;;;;;;;;;1.67;1.67;;;;;;;;5013806;28;51022;-59
2023/08/06 10:43:41;;;;;;;;;1.33;1.33;;;;;;;;5014237;28;51228;-60
2023/08/06 10:46:10;;;;;;;;;1.67;1.67;;;;;;;;5014186;28;51011;-59
2023/08/06 10:48:39;;;;;;;;;2.00;2.00;;;;;;;;5014268;28;50953;-58
2023/08/06 10:51:08;;;;;;;;;3.00;2.00;;;;;;;;5014191;28;51934;-58
2023/08/06 10:53:33;;;;;;;;;2.00;1.00;;;;;;;;5014080;28;50857;-58
2023/08/06 10:55:58;;;;;;;;;2.00;2.00;;;;;;;;5014334;28;51154;-59
2023/08/06 10:58:24;;;;;;;;;2.67;2.00;;;;;;;;5014374;28;51254;-59
2023/08/06 11:00:49;;;;;;;;;1.00;1.00;;;;;;;;5014192;28;50918;-59
2023/08/06 11:03:14;;;;;;;;;2.33;2.00;;;;;;;;5013804;28;50986;-60
2023/08/06 11:05:39;;;;;;;;;2.00;2.00;;;;;;;;5014345;28;51023;-60
2023/08/06 11:08:05;;;;;;;;;1.67;1.67;;;;;;;;5013931;28;51027;-60
2023/08/06 11:10:32;;;;;;;;;1.67;1.67;;;;;;;;5013654;28;51058;-59
2023/08/06 11:13:01;;;;;;;;;2.33;2.33;;;;;;;;5013829;28;50945;-59
2023/08/06 11:15:26;;;;;;;;;2.33;1.00;;;;;;;;5014023;28;51001;-60
2023/08/06 11:17:51;;;;;;;;;2.00;2.00;;;;;;;;5013906;28;51321;-59
2023/08/06 11:20:17;;;;;;;;;2.00;2.00;;;;;;;;5013732;28;52371;-59
2023/08/06 11:22:42;;;;;;;;;1.33;1.33;;;;;;;;5013519;28;51103;-59
2023/08/06 11:25:08;;;;;;;;;2.00;2.00;;;;;;;;5013674;28;51568;-59
2023/08/06 11:27:33;;;;;;;;;1.00;1.00;;;;;;;;5012238;28;51343;-59
2023/08/06 11:29:58;;;;;;;;;3.00;2.00;;;;;;;;5012985;28;51771;-59
2023/08/06 11:32:24;;;;;;;;;5.00;4.00;;;;;;;;5012910;28;50991;-59
2023/08/06 11:40:39;;;;;;;;;;;;;;;;;;2;261076742;261076742;-59
2023/08/06 11:50:36;;;;;;;;;0.50;0.50;;;;;;;;2;315089373;315089373;-59
2023/08/06 11:58:52;;;;;;;;;0.00;0.00;;;;;;;;2;261079267;261079267;-59
2023/08/06 12:08:46;;;;;;;;;0.50;0.50;;;;;;;;2;315092069;315092069;-58
2023/08/06 12:17:02;;;;;;;;;0.50;0.50;;;;;;;;2;261079590;261079590;-58
2023/08/06 12:24:31;;;;;;;;;3.50;3.50;;;;;;;;2;315095470;315095470;-58
2023/08/06 12:27:01;;;;;;;;;4.00;4.00;;;;;;;;5009654;28;51231;-58
2023/08/06 12:29:28;;;;;;;;;2.33;2.33;;;;;;;;5013480;28;51420;-59
2023/08/06 12:31:53;;;;;;;;;2.33;2.33;;;;;;;;5013057;28;50927;-59
2023/08/06 12:34:18;;;;;;;;;3.00;3.00;;;;;;;;5010734;28;51117;-59
2023/08/06 12:36:43;;;;;;;;;1.67;1.67;;;;;;;;5012576;28;50865;-58
2023/08/06 12:39:08;;;;;;;;;1.67;1.67;;;;;;;;5011994;28;50847;-59
2023/08/06 12:41:34;;;;;;;;;2.67;2.00;;;;;;;;5012106;28;52715;-59
2023/08/06 12:43:59;;;;;;;;;3.00;3.00;;;;;;;;5012057;28;51258;-58
2023/08/06 12:46:25;;;;;;;;;2.00;2.00;;;;;;;;5012321;28;51353;-59
2023/08/06 12:48:50;;;;;;;;;3.00;2.00;;;;;;;;5012543;28;50999;-59
2023/08/06 12:51:15;;;;;;;;;3.33;3.33;;;;;;;;5012295;28;51875;-59
2023/08/06 12:53:41;;;;;;;;;2.00;2.00;;;;;;;;5011845;28;51011;-59
2023/08/06 12:56:06;;;;;;;;;3.00;2.67;;;;;;;;5011968;28;50966;-59
2023/08/06 12:58:31;;;;;;;;;2.67;2.67;;;;;;;;5021457;28;51275;-59
2023/08/06 13:00:56;;;;;;;;;5.67;5.67;;;;;;;;5013375;28;51125;-59
2023/08/06 13:03:22;;;;;;;;;2.33;2.33;;;;;;;;5011965;28;50936;-59
2023/08/06 13:05:47;;;;;;;;;3.00;3.00;;;;;;;;5010723;28;51132;-59
2023/08/06 13:08:15;;;;;;;;;50.75;42.75;;;;;;;;5011632;28;51252;-58
2023/08/06 13:10:40;;;;;;;;;4.00;4.00;;;;;;;;5011559;28;51109;-60
2023/08/06 13:13:05;;;;;;;;;2.67;2.67;;;;;;;;5011571;28;51062;-58
2023/08/06 13:15:31;;;;;;;;;3.00;3.00;;;;;;;;5011994;28;50849;-59
2023/08/06 13:17:56;;;;;;;;;3.00;3.00;;;;;;;;5011660;28;51229;-58
2023/08/06 13:20:22;;;;;;;;;5.33;4.00;;;;;;;;5011773;28;51996;-58
2023/08/06 13:22:50;;;;;;;;;5.33;5.00;;;;;;;;5008270;28;50884;-62
2023/08/06 13:25:16;;;;;;;;;3.00;2.00;;;;;;;;4991756;28;51071;-58
2023/08/06 13:27:43;;;;;;;;;2.00;2.00;;;;;;;;4994025;28;50951;-59
2023/08/06 13:30:09;;;;;;;;;5.00;5.00;;;;;;;;5006060;28;51916;-59
2023/08/06 13:32:36;;;;;;;;;4.00;4.00;;;;;;;;5014961;28;51026;-59
2023/08/06 13:35:01;;;;;;;;;3.00;2.00;;;;;;;;5015445;28;51000;-59
2023/08/06 13:37:26;;;;;;;;;4.33;4.00;;;;;;;;5015246;28;50878;-58
2023/08/06 13:39:52;;;;;;;;;3.00;3.00;;;;;;;;5014975;28;51878;-58
2023/08/06 13:42:17;;;;;;;;;2.00;1.67;;;;;;;;5015187;28;50896;-59
2023/08/06 13:44:42;;;;;;;;;22.75;22.00;;;;;;;;5015203;28;50857;-58
2023/08/06 13:47:08;;;;;;;;;3.67;3.00;;;;;;;;5015076;28;50990;-59
2023/08/06 13:49:33;;;;;;;;;8.67;8.67;;;;;;;;5014702;28;51441;-59
2023/08/06 13:51:58;;;;;;;;;3.00;3.00;;;;;;;;3270259;28;50401310;-59
2023/08/06 13:54:23;;;;;;;;;3.00;3.00;;;;;;;;5014666;28;50984;-59
2023/08/06 13:56:50;;;;;;;;;5.33;4.33;;;;;;;;5015022;28;51030;-59
2023/08/06 13:59:16;;;;;;;;;5.67;5.00;;;;;;;;5015197;28;50960;-59
2023/08/06 14:01:41;;;;;;;;;1.33;1.33;;;;;;;;5012981;28;52260;-59
2023/08/06 14:04:07;;;;;;;;;2.00;2.00;;;;;;;;5013287;28;50923;-59
2023/08/06 14:06:49;;;;;;;;;;;;;;;;;;2595776;28;87678846;-59
2023/08/06 14:09:18;;;;;;;;;4.75;4.75;;;;;;;;5011511;28;51189;-58
2023/08/06 14:11:43;;;;;;;;;2.00;2.00;;;;;;;;5013860;28;51218;-59
2023/08/06 14:14:08;;;;;;;;;2.33;2.33;;;;;;;;5013390;28;51158;-58
2023/08/06 14:16:46;;;;;;;;;;;;;;;;;;900441;28;131798899;-58
2023/08/06 14:19:11;;;;;;;;;3.00;2.00;;;;;;;;4991631;28;51079;-59
2023/08/06 14:21:37;;;;;;;;;4.00;4.00;;;;;;;;4994691;28;51028;-58
2023/08/06 14:24:03;;;;;;;;;4.33;3.00;;;;;;;;4994260;28;51100;-59
2023/08/06 14:26:28;;;;;;;;;3.75;3.25;;;;;;;;4993175;28;51457;-60
2023/08/06 14:28:54;;;;;;;;;3.00;3.00;;;;;;;;4995067;28;50925;-59
2023/08/06 14:31:19;;;;;;;;;2.00;2.00;;;;;;;;5014611;28;50951;-59
2023/08/06 14:33:45;;;;;;;;;4.00;3.00;;;;;;;;5014481;28;50821;-60
2023/08/06 14:36:10;;;;;;;;;2.00;2.00;;;;;;;;5013847;28;51299;-59
2023/08/06 14:38:35;;;;;;;;;3.00;3.00;;;;;;;;5013751;28;51072;-59
2023/08/06 14:41:01;;;;;;;;;2.67;2.67;;;;;;;;5014073;28;50869;-60
2023/08/06 14:43:26;;;;;;;;;2.25;2.25;;;;;;;;5014184;28;50920;-59
2023/08/06 14:45:52;;;;;;;;;3.00;3.00;;;;;;;;5014164;28;51316;-59
2023/08/06 14:48:17;;;;;;;;;2.67;2.33;;;;;;;;5014009;28;50885;-59
2023/08/06 14:50:42;;;;;;;;;1.67;1.67;;;;;;;;5014302;28;50853;-59
2023/08/06 14:53:08;;;;;;;;;2.00;2.00;;;;;;;;5014220;28;50857;-60
2023/08/06 14:55:33;;;;;;;;;3.00;3.00;;;;;;;;5013638;28;52955;-60
2023/08/06 14:57:58;;;;;;;;;4.00;4.00;;;;;;;;5013079;28;50912;-59
2023/08/06 15:00:24;;;;;;;;;2.00;2.00;;;;;;;;5013918;28;51252;-60
2023/08/06 15:02:49;;;;;;;;;2.67;2.00;;;;;;;;5014087;28;51082;-60
2023/08/06 15:05:15;;;;;;;;;2.67;2.33;;;;;;;;5013444;28;51854;-58
2023/08/06 15:07:40;;;;;;;;;2.00;2.00;;;;;;;;5012414;28;51155;-59
2023/08/06 15:10:05;;;;;;;;;3.00;2.67;;;;;;;;5013009;28;51174;-60